createdAt,value
2022-10-06T00:01:06.727Z,3.75
2022-10-06T00:03:33.778Z,3.13
2022-10-06T00:06:01.761Z,4.22
2022-10-06T00:08:31.183Z,4.13
2022-10-06T00:10:58.056Z,3.78
2022-10-06T00:13:25.099Z,3.58
2022-10-06T00:15:51.803Z,3.83
2022-10-06T00:18:18.521Z,3.53
2022-10-06T00:20:45.333Z,4.13
2022-10-06T00:23:11.971Z,3.83
2022-10-06T00:25:38.671Z,3.50
2022-10-06T00:28:05.360Z,3.63
2022-10-06T00:30:32.036Z,3.72
2022-10-06T00:33:01.069Z,3.80
2022-10-06T00:35:34.201Z,3.67
2022-10-06T00:38:01.834Z,4.18
2022-10-06T00:40:29.139Z,3.97
2022-10-06T00:43:05.406Z,3.90
2022-10-06T00:45:38.318Z,3.67
2022-10-06T00:48:12.654Z,3.92
2022-10-06T00:50:40.156Z,4.10
2022-10-06T00:53:07.714Z,3.78
2022-10-06T00:55:34.523Z,4.25
2022-10-06T00:58:01.492Z,4.10
2022-10-06T01:00:28.658Z,4.25
2022-10-06T01:03:11.820Z,3.97
2022-10-06T01:05:46.818Z,4.00
2022-10-06T01:08:14.184Z,3.70
2022-10-06T01:10:40.824Z,4.15
2022-10-06T01:13:10.479Z,3.92
2022-10-06T01:15:42.298Z,3.85
2022-10-06T01:18:15.111Z,3.70
2022-10-06T01:20:47.134Z,4.07
2022-10-06T01:23:13.900Z,3.90
2022-10-06T01:25:40.965Z,3.47
2022-10-06T01:28:09.493Z,3.50
2022-10-06T01:30:54.794Z,3.63
2022-10-06T01:33:22.556Z,3.78
2022-10-06T01:35:51.181Z,3.33
2022-10-06T01:38:18.265Z,3.65
2022-10-06T01:40:45.728Z,4.03
2022-10-06T01:43:12.681Z,3.30
2022-10-06T01:45:39.648Z,3.85
2022-10-06T01:48:06.384Z,3.60
2022-10-06T01:50:33.073Z,3.42
2022-10-06T01:52:59.805Z,3.70
2022-10-06T01:55:26.754Z,3.38
2022-10-06T01:57:53.600Z,3.55
2022-10-06T02:00:20.349Z,3.40
2022-10-06T02:02:46.978Z,3.40
2022-10-06T02:05:14.628Z,3.55
2022-10-06T02:07:41.515Z,3.50
2022-10-06T02:10:08.514Z,3.10
2022-10-06T02:12:35.447Z,3.50
2022-10-06T02:15:02.220Z,3.90
2022-10-06T02:17:29.441Z,3.72
2022-10-06T02:19:56.084Z,3.85
2022-10-06T02:22:22.766Z,3.10
2022-10-06T02:24:49.389Z,3.50
2022-10-06T02:27:16.006Z,3.80
2022-10-06T02:29:42.662Z,3.67
2022-10-06T02:32:09.286Z,3.60
2022-10-06T02:34:36.013Z,3.33
2022-10-06T02:37:02.649Z,3.50
2022-10-06T02:39:29.283Z,3.63
2022-10-06T02:41:55.984Z,3.65
2022-10-06T02:44:25.019Z,3.55
2022-10-06T02:46:52.804Z,4.00
2022-10-06T02:49:19.763Z,3.45
2022-10-06T02:51:46.653Z,3.65
2022-10-06T02:54:13.263Z,3.80
2022-10-06T02:56:39.886Z,3.13
2022-10-06T02:59:06.585Z,3.53
2022-10-06T03:01:33.226Z,3.85
2022-10-06T03:03:59.946Z,3.83
2022-10-06T03:06:29.586Z,3.97
2022-10-06T03:08:57.810Z,4.10
2022-10-06T03:11:26.841Z,3.85
2022-10-06T03:13:54.232Z,3.55
2022-10-06T03:16:25.709Z,3.90
2022-10-06T03:18:54.687Z,3.90
2022-10-06T03:21:23.740Z,3.65
2022-10-06T03:23:52.245Z,4.53
2022-10-06T03:26:21.431Z,3.67
2022-10-06T03:28:48.447Z,3.97
2022-10-06T03:31:16.121Z,3.67
2022-10-06T03:33:42.919Z,4.10
2022-10-06T03:36:21.288Z,3.95
2022-10-06T03:38:48.317Z,4.10
2022-10-06T03:41:22.334Z,3.72
2022-10-06T03:43:50.506Z,4.40
2022-10-06T03:46:19.885Z,3.78
2022-10-06T03:48:48.383Z,3.85
2022-10-06T03:51:17.821Z,3.70
2022-10-06T03:53:46.068Z,3.80
2022-10-06T03:56:19.282Z,4.15
2022-10-06T03:58:49.745Z,3.38
2022-10-06T04:01:26.495Z,3.90
2022-10-06T04:03:55.364Z,3.42
2022-10-06T04:06:23.220Z,3.58
2022-10-06T04:08:51.475Z,4.13
2022-10-06T04:11:21.752Z,3.63
2022-10-06T04:16:20.554Z,4.40
2022-10-06T04:18:50.684Z,3.70
2022-10-06T04:21:18.049Z,3.92
2022-10-06T04:26:38.207Z,3.38
2022-10-06T04:29:05.156Z,3.23
2022-10-06T04:31:37.179Z,3.50
2022-10-06T04:34:05.619Z,3.60
2022-10-06T04:36:41.266Z,4.13
2022-10-06T04:39:10.233Z,3.42
2022-10-06T04:41:39.295Z,3.30
2022-10-06T04:44:07.116Z,3.17
2022-10-06T04:46:43.757Z,2.50
2022-10-06T04:49:17.906Z,2.03
2022-10-06T04:51:46.584Z,2.03
2022-10-06T04:54:13.332Z,2.00
2022-10-06T04:56:39.944Z,1.70
2022-10-06T04:59:06.594Z,1.50
2022-10-06T05:01:35.595Z,1.30
2022-10-06T05:04:04.021Z,1.33
2022-10-06T05:06:39.222Z,1.70
2022-10-06T05:09:08.988Z,1.40
2022-10-06T05:11:35.960Z,1.50
2022-10-06T05:14:02.689Z,1.15
2022-10-06T05:16:31.282Z,1.17
2022-10-06T05:18:58.734Z,1.23
2022-10-06T05:21:28.210Z,1.40
2022-10-06T05:23:54.955Z,1.45
2022-10-06T05:26:24.239Z,1.83
2022-10-06T05:28:50.974Z,1.80
2022-10-06T05:31:23.032Z,1.30
2022-10-06T05:33:49.822Z,0.93
2022-10-06T05:36:19.025Z,1.10
2022-10-06T05:38:46.010Z,1.05
2022-10-06T05:41:24.369Z,0.90
2022-10-06T05:43:51.564Z,0.95
2022-10-06T05:46:24.918Z,1.15
2022-10-06T05:48:55.589Z,1.40
2022-10-06T05:51:30.106Z,0.80
2022-10-06T05:53:57.808Z,0.88
2022-10-06T05:56:35.601Z,0.75
2022-10-06T05:59:02.537Z,0.90
2022-10-06T06:01:31.422Z,0.90
2022-10-06T06:04:03.401Z,0.90
2022-10-06T06:06:33.284Z,0.88
2022-10-06T06:09:09.257Z,1.13
2022-10-06T06:11:38.710Z,1.38
2022-10-06T06:14:10.351Z,0.90
2022-10-06T06:16:39.047Z,0.90
2022-10-06T06:19:07.866Z,1.05
2022-10-06T06:21:34.669Z,1.10
2022-10-06T06:24:03.032Z,0.73
2022-10-06T06:26:32.364Z,0.80
2022-10-06T06:29:03.880Z,1.33
2022-10-06T06:31:33.149Z,1.23
2022-10-06T06:34:02.689Z,0.90
2022-10-06T06:36:38.776Z,1.15
2022-10-06T06:39:10.689Z,0.88
2022-10-06T06:41:39.570Z,0.75
2022-10-06T06:44:08.378Z,0.75
2022-10-06T06:49:07.508Z,0.98
2022-10-06T06:51:40.405Z,0.90
2022-10-06T06:54:08.806Z,0.85
2022-10-06T06:56:36.382Z,1.02
2022-10-06T06:59:10.797Z,1.00
2022-10-06T07:01:44.489Z,1.00
2022-10-06T07:04:12.972Z,1.17
2022-10-06T07:06:40.641Z,1.65
2022-10-06T07:09:08.412Z,1.00
2022-10-06T07:11:39.796Z,1.30
2022-10-06T07:14:10.294Z,0.93
2022-10-06T07:16:55.525Z,0.70
2022-10-06T07:19:40.524Z,1.15
2022-10-06T07:22:25.698Z,0.95
2022-10-06T07:25:11.680Z,1.10
2022-10-06T07:27:51.000Z,1.25
2022-10-06T07:30:20.350Z,1.05
2022-10-06T07:32:48.389Z,1.20
2022-10-06T07:35:16.782Z,1.70
2022-10-06T07:37:43.517Z,1.08
2022-10-06T07:40:10.717Z,1.15
2022-10-06T07:45:39.623Z,1.30
2022-10-06T07:48:20.204Z,1.05
2022-10-06T07:50:49.175Z,1.42
2022-10-06T07:53:17.239Z,1.23
2022-10-06T07:55:46.397Z,0.93
2022-10-06T07:58:17.175Z,1.55
2022-10-06T08:00:44.921Z,0.90
2022-10-06T08:03:14.633Z,0.95
2022-10-06T08:05:41.253Z,1.30
2022-10-06T08:08:07.827Z,0.90
2022-10-06T08:10:34.475Z,1.05
2022-10-06T08:13:05.115Z,1.10
2022-10-06T08:15:31.916Z,1.33
2022-10-06T08:18:02.548Z,1.00
2022-10-06T08:20:30.420Z,1.05
2022-10-06T08:22:57.112Z,1.25
2022-10-06T08:25:23.730Z,1.25
2022-10-06T08:27:53.531Z,0.98
2022-10-06T08:30:20.634Z,1.02
2022-10-06T08:32:47.792Z,1.23
2022-10-06T08:35:14.632Z,1.15
2022-10-06T08:37:41.536Z,1.73
2022-10-06T08:40:14.368Z,2.83
2022-10-06T08:42:44.217Z,1.42
2022-10-06T08:45:37.664Z,1.52
2022-10-06T08:48:14.089Z,1.25
2022-10-06T08:51:08.466Z,1.27
2022-10-06T08:53:39.419Z,1.65
2022-10-06T08:56:17.982Z,1.45
2022-10-06T08:58:53.847Z,1.55
2022-10-06T09:01:24.059Z,1.25
2022-10-06T09:06:28.342Z,1.27
2022-10-06T09:08:59.531Z,1.33
2022-10-06T09:11:46.538Z,1.65
2022-10-06T09:14:26.822Z,1.48
2022-10-06T09:22:06.986Z,1.45
2022-10-06T09:24:40.507Z,1.50
2022-10-06T09:27:23.141Z,1.38
2022-10-06T09:29:51.285Z,1.38
2022-10-06T09:32:20.713Z,1.55
2022-10-06T09:34:52.006Z,1.43
2022-10-06T09:37:19.322Z,1.50
2022-10-06T09:39:50.242Z,1.70
2022-10-06T09:42:35.489Z,2.13
2022-10-06T09:45:16.776Z,1.50
2022-10-06T09:47:45.338Z,1.50
2022-10-06T09:50:25.613Z,1.25
2022-10-06T09:52:59.183Z,1.33
2022-10-06T09:55:29.065Z,1.38
2022-10-06T09:57:57.344Z,1.33
2022-10-06T10:00:32.110Z,1.52
2022-10-06T10:03:04.930Z,1.40
2022-10-06T10:05:37.282Z,1.23
2022-10-06T10:08:12.904Z,1.50
2022-10-06T10:10:40.549Z,1.55
2022-10-06T10:13:22.494Z,1.30
2022-10-06T10:15:53.729Z,1.25
2022-10-06T10:18:28.807Z,1.70
2022-10-06T10:21:00.545Z,1.80
2022-10-06T10:23:33.117Z,1.45
2022-10-06T10:26:08.165Z,1.50
2022-10-06T10:29:06.694Z,1.55
2022-10-06T10:32:00.700Z,1.95
2022-10-06T10:34:54.210Z,2.00
2022-10-06T10:37:44.067Z,2.05
2022-10-06T10:40:29.445Z,1.38
2022-10-06T10:43:04.443Z,1.25
2022-10-06T10:45:35.973Z,1.40
2022-10-06T10:48:19.134Z,1.50
2022-10-06T10:51:27.448Z,1.35
2022-10-06T10:54:27.882Z,1.27
2022-10-06T10:56:54.626Z,1.60
2022-10-06T10:59:23.851Z,1.25
2022-10-06T11:01:56.491Z,1.40
2022-10-06T11:04:23.286Z,1.70
2022-10-06T11:06:55.778Z,1.77
2022-10-06T11:09:40.527Z,1.20
2022-10-06T11:12:44.499Z,2.00
2022-10-06T11:15:48.058Z,1.65
2022-10-06T11:18:35.364Z,2.10
2022-10-06T11:21:21.757Z,1.92
2022-10-06T11:23:58.697Z,1.45
2022-10-06T11:27:01.062Z,2.08
2022-10-06T11:29:52.862Z,1.30
2022-10-06T11:32:25.521Z,1.33
2022-10-06T11:34:52.826Z,1.55
2022-10-06T11:37:45.051Z,1.45
2022-10-06T11:40:38.442Z,1.65
2022-10-06T11:43:17.306Z,1.70
2022-10-06T11:45:55.209Z,1.00
2022-10-06T11:48:29.768Z,1.35
2022-10-06T11:51:16.293Z,1.35
2022-10-06T11:53:46.685Z,1.40
2022-10-06T11:56:19.135Z,1.75
2022-10-06T11:58:54.201Z,1.55
2022-10-06T12:01:33.818Z,1.83
2022-10-06T12:04:09.618Z,1.35
2022-10-06T12:06:42.034Z,1.40
2022-10-06T12:09:32.153Z,1.10
2022-10-06T12:12:21.787Z,1.40
2022-10-06T12:18:02.817Z,1.10
2022-10-06T12:20:53.272Z,1.85
2022-10-06T12:23:40.841Z,1.20
2022-10-06T12:26:32.448Z,1.60
2022-10-06T12:29:35.893Z,1.92
2022-10-06T12:32:40.313Z,1.80
2022-10-06T12:35:24.720Z,1.40
2022-10-06T12:37:54.701Z,1.75
2022-10-06T12:40:46.994Z,0.85
2022-10-06T12:43:20.832Z,1.25
2022-10-06T12:45:57.704Z,1.40
2022-10-06T12:48:41.937Z,1.30
2022-10-06T12:51:39.816Z,1.42
2022-10-06T12:54:20.312Z,1.58
2022-10-06T12:57:13.457Z,1.08
2022-10-06T12:59:40.927Z,1.25
2022-10-06T13:02:14.521Z,1.48
2022-10-06T13:04:54.087Z,1.45
2022-10-06T13:07:27.853Z,1.10
2022-10-06T13:10:14.426Z,1.27
2022-10-06T13:12:47.225Z,1.27
2022-10-06T13:15:24.051Z,1.48
2022-10-06T13:17:59.070Z,1.15
2022-10-06T13:20:40.553Z,1.30
2022-10-06T13:26:25.039Z,1.60
2022-10-06T13:28:53.579Z,1.70
2022-10-06T13:31:31.381Z,1.55
2022-10-06T13:34:13.532Z,1.65
2022-10-06T13:36:42.820Z,1.40
2022-10-06T13:39:20.780Z,1.17
2022-10-06T13:41:57.006Z,1.50
2022-10-06T13:44:35.807Z,1.73
2022-10-06T13:47:20.350Z,1.85
2022-10-06T13:49:56.158Z,1.75
2022-10-06T13:52:33.104Z,1.70
2022-10-06T13:55:01.918Z,1.80
2022-10-06T13:57:34.941Z,2.40
2022-10-06T14:00:24.349Z,3.10
2022-10-06T14:03:08.306Z,2.90
2022-10-06T14:05:37.760Z,2.88
2022-10-06T14:08:15.724Z,3.53
2022-10-06T14:10:50.267Z,2.67
2022-10-06T14:13:18.775Z,4.18
2022-10-06T14:15:49.369Z,3.80
2022-10-06T14:18:39.004Z,3.03
2022-10-06T14:21:29.150Z,2.97
2022-10-06T14:23:56.661Z,2.92
2022-10-06T14:26:29.753Z,1.75
2022-10-06T14:28:57.143Z,1.63
2022-10-06T14:31:25.625Z,1.85
2022-10-06T14:33:53.500Z,1.75
2022-10-06T14:36:23.945Z,1.15
2022-10-06T14:38:51.587Z,1.70
2022-10-06T14:41:19.561Z,1.35
2022-10-06T14:43:49.327Z,1.42
2022-10-06T14:46:15.992Z,1.40
2022-10-06T14:48:42.767Z,1.60
2022-10-06T14:51:10.383Z,1.73
2022-10-06T14:53:39.424Z,1.70
2022-10-06T14:56:13.800Z,1.58
2022-10-06T14:58:44.061Z,1.50
2022-10-06T15:03:39.121Z,1.23
2022-10-06T15:06:29.588Z,1.73
2022-10-06T15:08:59.123Z,1.88
2022-10-06T15:11:27.847Z,1.50
2022-10-06T15:13:56.935Z,1.55
2022-10-06T15:16:23.720Z,1.40
2022-10-06T15:18:51.371Z,1.80
2022-10-06T15:21:18.842Z,1.40
2022-10-06T15:23:46.249Z,1.13
2022-10-06T15:26:31.660Z,1.92
2022-10-06T15:29:01.299Z,1.35
2022-10-06T15:31:30.982Z,1.45
2022-10-06T15:34:00.134Z,1.42
2022-10-06T15:36:28.734Z,1.08
2022-10-06T15:38:57.803Z,1.50
2022-10-06T15:41:24.885Z,1.30
2022-10-06T15:43:57.014Z,1.27
2022-10-06T15:46:27.168Z,1.30
2022-10-06T15:51:22.628Z,1.73
2022-10-06T15:53:50.466Z,1.70
2022-10-06T15:56:17.445Z,1.60
2022-10-06T15:58:44.864Z,1.60
2022-10-06T16:01:31.455Z,1.80
2022-10-06T16:04:02.094Z,1.63
2022-10-06T16:06:49.405Z,1.60
2022-10-06T16:09:19.057Z,2.20
2022-10-06T16:11:47.161Z,1.45
2022-10-06T16:14:15.075Z,2.00
2022-10-06T16:16:43.875Z,2.03
2022-10-06T16:19:10.883Z,1.88
2022-10-06T16:21:40.062Z,2.58
2022-10-06T16:24:07.188Z,1.88
2022-10-06T16:26:34.021Z,1.58
2022-10-06T16:29:00.771Z,1.50
2022-10-06T16:31:27.692Z,2.47
2022-10-06T16:33:54.384Z,1.95
2022-10-06T16:36:21.775Z,2.90
2022-10-06T16:38:52.836Z,2.60
2022-10-06T16:41:20.177Z,3.00
2022-10-06T16:43:49.081Z,2.22
2022-10-06T16:46:24.766Z,2.50
2022-10-06T16:48:53.860Z,2.78
2022-10-06T16:51:23.475Z,2.53
2022-10-06T16:53:56.541Z,2.47
2022-10-06T16:56:26.971Z,2.17
2022-10-06T16:58:58.712Z,2.00
2022-10-06T17:01:27.876Z,2.10
2022-10-06T17:04:05.397Z,1.95
2022-10-06T17:06:43.691Z,1.98
2022-10-06T17:09:15.620Z,2.10
2022-10-06T17:11:53.639Z,2.03
2022-10-06T17:14:21.523Z,2.58
2022-10-06T17:16:50.743Z,2.33
2022-10-06T17:19:19.374Z,2.30
2022-10-06T17:21:48.767Z,2.50
2022-10-06T17:24:18.320Z,3.65
2022-10-06T17:26:47.336Z,2.80
2022-10-06T17:29:18.673Z,3.88
2022-10-06T17:31:46.740Z,3.42
2022-10-06T17:34:21.977Z,3.38
2022-10-06T17:36:51.880Z,3.33
2022-10-06T17:39:21.406Z,3.65
2022-10-06T17:41:49.957Z,3.10
2022-10-06T17:44:22.942Z,4.07
2022-10-06T17:46:52.898Z,4.13
2022-10-06T17:49:21.134Z,3.65
2022-10-06T17:51:49.126Z,4.70
2022-10-06T17:54:19.913Z,3.47
2022-10-06T17:56:49.050Z,4.07
2022-10-06T17:59:22.261Z,4.32
2022-10-06T18:01:51.373Z,4.38
2022-10-06T18:04:18.791Z,4.80
2022-10-06T18:06:47.263Z,4.88
2022-10-06T18:09:15.457Z,4.93
2022-10-06T18:11:43.440Z,4.75
2022-10-06T18:14:18.106Z,4.90
2022-10-06T18:16:57.547Z,5.53
2022-10-06T18:19:28.537Z,5.15
2022-10-06T18:22:14.012Z,5.65
2022-10-06T18:24:40.674Z,5.43
2022-10-06T18:27:08.089Z,4.80
2022-10-06T18:29:37.365Z,5.30
2022-10-06T18:32:53.402Z,5.20
2022-10-06T18:37:39.665Z,5.88
2022-10-06T18:40:08.885Z,5.38
2022-10-06T18:42:35.858Z,6.15
2022-10-06T18:45:21.448Z,4.78
2022-10-06T18:48:07.069Z,5.38
2022-10-06T18:50:35.185Z,6.65
2022-10-06T18:53:04.090Z,6.07
2022-10-06T18:55:31.605Z,5.70
2022-10-06T18:57:59.129Z,5.85
2022-10-06T19:00:25.971Z,5.85
2022-10-06T19:02:54.882Z,6.03
2022-10-06T19:05:21.614Z,6.57
2022-10-06T19:07:48.270Z,6.53
2022-10-06T19:10:14.881Z,5.93
2022-10-06T19:12:41.588Z,6.82
2022-10-06T19:15:09.983Z,6.35
2022-10-06T19:17:39.741Z,5.93
2022-10-06T19:20:07.114Z,6.35
2022-10-06T19:22:34.256Z,6.47
2022-10-06T19:25:01.085Z,6.38
2022-10-06T19:27:30.198Z,6.20
2022-10-06T19:29:57.053Z,6.43
2022-10-06T19:32:27.429Z,6.82
2022-10-06T19:34:58.850Z,5.88
2022-10-06T19:37:28.435Z,6.10
2022-10-06T19:39:55.198Z,5.87
2022-10-06T19:42:40.514Z,6.55
2022-10-06T19:45:09.582Z,6.22
2022-10-06T19:47:36.249Z,6.35
2022-10-06T19:50:10.419Z,5.63
2022-10-06T19:52:38.603Z,5.53
2022-10-06T19:55:05.563Z,6.70
2022-10-06T19:57:33.631Z,6.45
2022-10-06T20:00:00.541Z,6.78
2022-10-06T20:02:28.822Z,6.38
2022-10-06T20:04:56.091Z,5.90
2022-10-06T20:07:25.514Z,6.60
2022-10-06T20:09:52.160Z,6.38
2022-10-06T20:12:24.332Z,6.68
2022-10-06T20:14:52.780Z,6.05
2022-10-06T20:17:20.675Z,6.32
2022-10-06T20:19:47.280Z,5.53
2022-10-06T20:22:13.900Z,5.70
2022-10-06T20:24:41.128Z,5.35
2022-10-06T20:27:08.774Z,5.30
2022-10-06T20:29:35.505Z,5.05
2022-10-06T20:32:02.368Z,4.82
2022-10-06T20:34:31.909Z,5.70
2022-10-06T20:37:00.119Z,5.32
2022-10-06T20:39:45.536Z,5.30
2022-10-06T20:42:15.268Z,5.70
2022-10-06T20:44:43.282Z,7.00
2022-10-06T20:47:11.230Z,6.72
2022-10-06T20:49:37.845Z,6.78
2022-10-06T20:52:05.856Z,7.05
2022-10-06T20:54:35.550Z,6.57
2022-10-06T20:57:04.812Z,7.10
2022-10-06T20:59:32.188Z,7.00
2022-10-06T21:02:01.753Z,6.35
2022-10-06T21:04:29.235Z,6.32
2022-10-06T21:06:56.123Z,5.63
2022-10-06T21:09:24.529Z,6.00
2022-10-06T21:11:51.791Z,5.80
2022-10-06T21:14:19.249Z,5.47
2022-10-06T21:16:48.028Z,5.07
2022-10-06T21:19:19.470Z,4.82
2022-10-06T21:21:52.053Z,4.57
2022-10-06T21:24:19.566Z,5.00
2022-10-06T21:26:46.504Z,4.85
2022-10-06T21:29:15.534Z,5.50
2022-10-06T21:31:43.378Z,5.37
2022-10-06T21:34:10.711Z,5.22
2022-10-06T21:36:37.626Z,4.95
2022-10-06T21:39:05.846Z,5.28
2022-10-06T21:41:38.669Z,5.00
2022-10-06T21:44:08.282Z,4.55
2022-10-06T21:46:41.088Z,5.95
2022-10-06T21:49:11.250Z,5.57
2022-10-06T21:51:39.144Z,5.47
2022-10-06T21:54:06.423Z,5.20
2022-10-06T21:56:34.096Z,6.00
2022-10-06T21:59:00.991Z,5.72
2022-10-06T22:01:33.835Z,5.07
2022-10-06T22:04:01.561Z,5.05
2022-10-06T22:06:30.288Z,6.25
2022-10-06T22:08:59.000Z,5.80
2022-10-06T22:11:28.305Z,5.75
2022-10-06T22:13:57.555Z,6.10
2022-10-06T22:16:26.553Z,5.60
2022-10-06T22:18:53.515Z,5.97
2022-10-06T22:21:25.832Z,5.20
2022-10-06T22:24:02.458Z,6.70
2022-10-06T22:26:31.175Z,4.93
2022-10-06T22:28:58.551Z,5.63
2022-10-06T22:31:27.455Z,5.97
2022-10-06T22:33:59.600Z,5.50
2022-10-06T22:36:27.818Z,6.82
2022-10-06T22:38:56.090Z,7.50
2022-10-06T22:41:23.566Z,8.38
2022-10-06T22:43:57.312Z,9.85
2022-10-06T22:46:28.942Z,10.70
2022-10-06T22:48:56.302Z,10.63
2022-10-06T22:51:23.445Z,10.43
2022-10-06T22:53:57.988Z,11.45
2022-10-06T22:56:29.301Z,12.70
2022-10-06T22:58:59.587Z,12.63
2022-10-06T23:01:27.833Z,12.38
2022-10-06T23:03:55.662Z,13.15
2022-10-06T23:06:22.430Z,12.07
2022-10-06T23:08:49.116Z,10.88
2022-10-06T23:11:18.649Z,12.10
2022-10-06T23:13:46.046Z,12.00
2022-10-06T23:16:16.274Z,11.23
2022-10-06T23:18:44.431Z,12.48
2022-10-06T23:21:19.125Z,12.25
2022-10-06T23:23:46.551Z,12.82
2022-10-06T23:26:16.001Z,11.38
2022-10-06T23:28:43.267Z,13.32
2022-10-06T23:31:11.273Z,12.43
2022-10-06T23:33:38.604Z,11.65
2022-10-06T23:36:10.530Z,10.90
2022-10-06T23:38:38.414Z,11.90
2022-10-06T23:41:06.590Z,10.13
2022-10-06T23:43:33.611Z,11.55
2022-10-06T23:46:00.892Z,10.60
2022-10-06T23:48:27.843Z,11.63
2022-10-06T23:51:15.559Z,9.30
2022-10-06T23:53:43.145Z,8.60
2022-10-06T23:56:10.199Z,8.95
2022-10-06T23:58:37.323Z,8.85
